Latest Weather Observations for Cleve Airport

IDS60801

Issued at 5:31 pm CST Tuesday 23 April 2019 (issued every 10 minutes, with the page automatically refreshed every 10 minutes)

About weather observations | Map of weather stations | Latest weather observations for SA | Other Formats
Station Details ID: 018116 Name: CLEVE AERODROME Lat: -33.71 Lon: 136.50 Height: 175.0 m
Data from the previous 72 hours. | See also: Recent months at Cleve Airport
Date/Time
CST
Temp
°C
App
Temp
°C
Dew
Point
°C
Rel
Hum
%
Delta-T
°C
Wind Press
QNH
hPa
Press
MSL
hPa
Rain since
9am
mm
Dir  Spd
km/h
Gust
km/h
Spd
kts
Gust
kts
23/05:30pm 15.7 10.8 8.4 62 3.7 SE 24 33 13 18 1026.3 1025.9 0.0
23/05:00pm 16.5 11.1 8.2 58 4.2 SE 26 33 14 18 1026.2 1025.8 0.0
23/04:30pm 16.6 10.7 7.5 55 4.6 SE 28 39 15 21 1026.1 1025.7 0.0
23/04:00pm 17.4 12.4 8.0 54 4.8 SSE 24 32 13 17 1026.1 1025.7 0.0
23/03:30pm 17.0 11.1 7.6 54 4.7 SE 28 33 15 18 1026.0 1025.6 0.0
23/03:00pm 17.0 12.0 7.9 55 4.6 SSE 24 35 13 19 1026.1 1025.7 0.0
23/02:30pm 17.0 11.8 7.4 53 4.8 SE 24 37 13 20 1026.2 1025.8 0.0
23/02:00pm 18.4 13.7 7.8 50 5.4 SE 22 35 12 19 1026.3 1025.9 0.0
23/01:30pm 17.8 13.5 7.2 50 5.3 ESE 19 24 10 13 1026.5 1026.1 0.0
23/01:00pm 18.2 14.6 8.2 52 5.2 ESE 17 26 9 14 1027.0 1026.6 0.0
23/12:30pm 17.2 13.3 7.3 52 5.0 SSE 17 22 9 12 1027.4 1027.1 0.0
23/12:00pm 17.4 13.1 7.7 53 4.9 SSE 20 28 11 15 1027.8 1027.5 0.0
23/11:30am 18.1 14.2 8.7 54 4.9 SSE 19 28 10 15 1028.1 1027.8 0.0
23/11:00am 16.9 12.8 8.6 58 4.3 SE 20 28 11 15 1028.1 1027.8 0.0
23/10:30am 16.3 12.7 8.5 60 4.0 SE 17 22 9 12 1028.1 1027.8 0.0
23/10:00am 16.6 12.4 8.3 58 4.3 SE 20 26 11 14 1028.2 1027.9 0.0
23/09:30am 15.3 11.7 8.5 64 3.5 E 17 20 9 11 1028.3 1028.0 0.0
23/09:00am 15.4 11.7 9.3 67 3.1 ESE 19 26 10 14 1028.5 1028.2 0.0
23/08:30am 14.4 11.0 9.2 71 2.7 E 17 22 9 12 1028.2 1027.9 0.0
23/08:00am 13.4 11.3 9.6 78 2.0 ENE 11 15 6 8 1027.8 1027.5 0.0
23/07:30am 11.2 8.6 9.3 88 1.0 NE 13 15 7 8 1027.5 1027.2 0.0
23/07:00am 9.4 6.8 7.7 89 0.8 NE 11 13 6 7 1027.3 1027.0 0.0
23/06:30am 9.2 6.9 7.3 88 0.9 ENE 9 11 5 6 1027.2 1026.9 0.0
23/06:00am 9.4 6.4 7.5 88 0.9 ENE 13 13 7 7 1027.0 1026.6 0.0
23/05:30am 9.4 6.7 7.5 88 0.9 ENE 11 11 6 6 1026.9 1026.5 0.0
23/05:00am 9.2 6.8 7.0 86 1.0 NE 9 9 5 5 1026.7 1026.3 0.0
23/04:30am 9.2 7.2 7.0 86 1.0 NE 7 9 4 5 1026.5 1026.1 0.0
23/04:00am 10.0 7.8 7.8 86 1.1 ENE 9 9 5 5 1026.3 1025.9 0.0
23/03:30am 9.4 7.0 7.0 85 1.1 ENE 9 11 5 6 1026.2 1025.8 0.0
23/03:00am 10.1 8.1 7.3 83 1.3 ENE 7 9 4 5 1026.5 1026.1 0.0
23/02:30am 10.6 8.7 7.7 82 1.4 NE 7 7 4 4 1026.7 1026.3 0.0
23/02:00am 10.8 9.1 7.7 81 1.5 E 6 7 3 4 1027.0 1026.6 0.0
23/01:30am 11.0 8.7 7.3 78 1.8 E 9 11 5 6 1027.2 1026.9 0.0
23/01:00am 11.5 8.5 7.6 77 1.9 E 13 15 7 8 1027.3 1027.0 0.0
23/12:30am 12.1 9.2 8.0 76 2.0 E 13 15 7 8 1027.2 1026.9 0.0
23/12:00am 12.3 9.4 8.2 76 2.0 E 13 15 7 8 1027.5 1027.2 0.0
 
Date/Time
CST
Temp
°C
App
Temp
°C
Dew
Point
°C
Rel
Hum
%
Delta-T
°C
Wind Press
QNH
hPa
Press
MSL
hPa
Rain since
9am
mm
Dir  Spd
km/h
Gust
km/h
Spd
kts
Gust
kts
22/11:30pm 11.6 9.4 7.7 77 1.9 NE 9 13 5 7 1027.4 1027.1 0.0
22/11:00pm 11.5 9.7 7.0 74 2.2 NE 6 7 3 4 1027.5 1027.2 0.0
22/10:30pm 12.2 10.4 7.1 71 2.5 E 6 7 3 4 1027.5 1027.2 0.0
22/10:00pm 12.4 11.9 7.7 73 2.3 CALM 0 0 0 0 1027.5 1027.2 0.0
22/09:30pm 11.8 10.8 7.3 74 2.2 ESE 2 6 1 3 1027.7 1027.4 0.0
22/09:00pm 12.3 11.7 7.4 72 2.4 CALM 0 0 0 0 1027.8 1027.5 0.0
22/08:30pm 12.0 10.9 7.1 72 2.4 SSE 2 6 1 3 1027.8 1027.5 0.0
22/08:00pm 11.9 10.0 6.8 71 2.5 S 6 7 3 4 1027.7 1027.4 0.0
22/07:30pm 12.4 10.0 6.9 69 2.6 S 9 11 5 6 1027.6 1027.3 0.0
22/07:00pm 12.7 10.2 6.7 67 2.9 S 9 13 5 7 1027.4 1027.1 0.0
22/06:30pm 13.2 9.9 6.5 64 3.2 SSE 13 15 7 8 1027.1 1026.8 0.0
22/06:00pm 14.5 10.2 7.1 61 3.6 SSE 19 22 10 12 1026.9 1026.5 0.0
22/05:30pm 15.5 11.0 6.8 56 4.3 SSE 20 26 11 14 1026.5 1026.1 0.0
22/05:00pm 15.9 10.4 6.1 52 4.8 SE 24 32 13 17 1026.4 1026.0 0.0
22/04:30pm 16.2 11.4 5.8 50 5.0 SSE 20 28 11 15 1026.1 1025.7 0.0
22/04:00pm 15.9 9.9 5.5 50 5.0 SE 26 35 14 19 1026.2 1025.8 0.0
22/03:30pm 16.8 10.5 5.7 48 5.4 SE 28 37 15 20 1026.0 1025.6 0.0
22/03:00pm 16.6 10.7 5.6 48 5.3 SSE 26 35 14 19 1025.9 1025.5 0.0
22/02:30pm 16.9 11.8 5.8 48 5.4 SE 22 32 12 17 1025.8 1025.4 0.0
22/02:00pm 16.8 11.7 6.0 49 5.3 SE 22 30 12 16 1025.9 1025.5 0.0
22/01:30pm 16.8 11.0 6.3 50 5.2 SE 26 35 14 19 1025.9 1025.5 0.0
22/01:00pm 17.7 13.2 6.9 49 5.4 ESE 20 30 11 16 1025.8 1025.4 0.0
22/12:30pm 17.5 12.3 7.3 51 5.1 ESE 24 33 13 18 1026.0 1025.6 0.0
22/12:00pm 17.8 13.6 8.1 53 5.0 ESE 20 28 11 15 1026.4 1026.0 0.0
22/11:30am 17.4 12.7 7.7 53 4.9 ESE 22 32 12 17 1026.7 1026.3 0.0
22/11:00am 16.3 12.4 7.3 55 4.5 ESE 17 22 9 12 1027.0 1026.6 0.0
22/10:30am 15.7 12.0 8.0 60 3.9 ESE 17 22 9 12 1027.3 1027.0 0.0
22/10:00am 15.5 13.9 10.1 70 2.9 E 9 15 5 8 1027.5 1027.2 0.0
22/09:30am 14.2 12.8 9.6 74 2.4 ESE 7 9 4 5 1027.4 1027.1 0.0
22/09:00am 13.4 12.5 9.3 76 2.1 NE 4 7 2 4 1027.3 1027.0 0.0
22/08:30am 12.6 11.0 8.1 74 2.2 NNW 6 7 3 4 1027.1 1026.8 0.0
22/08:00am 11.6 9.8 7.3 75 2.1 WNW 6 6 3 3 1026.8 1026.4 0.0
22/07:30am 11.1 10.1 7.2 77 1.9 NW 2 6 1 3 1026.6 1026.2 0.0
22/07:00am 10.6 7.4 6.9 78 1.8 W 13 17 7 9 1026.0 1025.6 0.0
22/06:30am 10.0 7.3 7.3 83 1.3 W 11 13 6 7 1025.7 1025.3 0.0
22/06:00am 10.3 7.2 7.4 82 1.4 W 13 15 7 8 1025.5 1025.1 0.0
22/05:30am 10.1 7.0 7.2 82 1.4 W 13 17 7 9 1025.3 1024.9 0.0
22/05:00am 9.6 6.4 6.9 83 1.3 WSW 13 17 7 9 1025.1 1024.7 0.0
22/04:30am 9.2 7.1 6.6 84 1.2 WNW 7 9 4 5 1024.9 1024.5 0.0
22/04:00am 9.6 7.2 6.9 83 1.3 WSW 9 11 5 6 1024.8 1024.4 0.0
22/03:30am 9.5 6.3 6.9 84 1.2 WSW 13 15 7 8 1024.8 1024.4 0.0
22/03:00am 9.7 6.5 7.0 83 1.3 WSW 13 17 7 9 1024.6 1024.2 0.0
22/02:30am 9.9 6.3 6.8 81 1.5 WSW 15 17 8 9 1024.6 1024.2 0.0
22/02:00am 9.9 6.4 7.0 82 1.4 WSW 15 17 8 9 1024.7 1024.3 0.0
22/01:30am 10.2 6.4 7.4 83 1.3 WSW 17 22 9 12 1024.7 1024.3 0.0
22/01:00am 10.2 6.3 7.1 81 1.5 WSW 17 19 9 10 1024.9 1024.5 0.0
22/12:30am 10.3 6.7 6.8 79 1.7 WSW 15 17 8 9 1025.0 1024.6 0.0
22/12:00am 10.3 7.5 7.0 80 1.6 WSW 11 13 6 7 1025.0 1024.6 0.0
 
Date/Time
CST
Temp
°C
App
Temp
°C
Dew
Point
°C
Rel
Hum
%
Delta-T
°C
Wind Press
QNH
hPa
Press
MSL
hPa
Rain since
9am
mm
Dir  Spd
km/h
Gust
km/h
Spd
kts
Gust
kts
21/11:30pm 10.8 7.7 7.3 79 1.7 WSW 13 17 7 9 1025.0 1024.6 0.0
21/11:00pm 11.1 7.7 7.6 79 1.7 WSW 15 17 8 9 1025.2 1024.8 0.0
21/10:30pm 11.1 8.1 7.6 79 1.7 W 13 15 7 8 1025.4 1025.0 0.0
21/10:00pm 11.6 9.3 7.5 76 2.0 WSW 9 11 5 6 1025.3 1024.9 0.0
21/09:30pm 12.4 9.8 7.9 74 2.2 SW 11 13 6 7 1025.0 1024.6 0.0
21/09:00pm 13.0 10.4 7.9 71 2.5 SSW 11 15 6 8 1024.6 1024.2 0.0
21/08:30pm 12.4 11.1 7.7 73 2.3 S 4 6 2 3 1024.4 1024.0 0.0
21/08:00pm 13.0 11.2 7.9 71 2.5 SE 7 7 4 4 1024.5 1024.1 0.0
21/07:30pm 13.3 11.1 7.7 69 2.8 SSE 9 11 5 6 1024.4 1024.0 0.0
21/07:00pm 13.6 11.4 8.0 69 2.8 SSE 9 11 5 6 1024.1 1023.7 0.0
21/06:30pm 13.6 10.6 7.8 68 2.9 SSE 13 15 7 8 1023.5 1023.2 0.0
21/06:00pm 14.6 10.5 7.9 64 3.4 SSE 19 22 10 12 1023.0 1022.7 0.0
21/05:30pm 15.5 11.2 8.0 61 3.8 SSE 20 24 11 13 1022.6 1022.3 0.0
21/05:00pm 15.9 10.9 7.9 59 4.1 SSE 24 32 13 17 1022.4 1022.1 0.0
21/04:30pm 16.3 11.6 7.8 57 4.3 SSE 22 30 12 16 1021.9 1021.5 0.0
21/04:00pm 17.1 12.5 8.0 55 4.7 S 22 32 12 17 1021.7 1021.3 0.0
21/03:30pm 16.7 12.2 8.4 58 4.3 S 22 28 12 15 1021.6 1021.2 0.0
21/03:00pm 17.1 12.0 7.7 54 4.8 S 24 32 13 17 1021.4 1021.0 0.0
21/02:30pm 17.2 12.8 7.3 52 5.0 SSE 20 30 11 16 1021.1 1020.7 0.0
21/02:00pm 18.0 13.9 7.7 51 5.3 SSW 19 33 10 18 1021.0 1020.6 0.0
21/01:30pm 17.5 13.3 7.3 51 5.1 SW 19 28 10 15 1021.0 1020.6 0.0
21/01:00pm 17.6 12.9 6.2 47 5.6 SW 20 30 11 16 1021.2 1020.8 0.0
21/12:30pm 17.5 12.2 6.7 49 5.4 SSW 24 33 13 18 1021.5 1021.1 0.0
21/12:00pm 16.4 11.7 7.9 57 4.3 SW 22 32 12 17 1021.8 1021.4 0.0
21/11:30am 16.5 12.3 8.2 58 4.2 SW 20 30 11 16 1021.6 1021.2 0.0
21/11:00am 16.4 12.5 9.6 64 3.6 SW 20 28 11 15 1021.7 1021.3 0.0
21/10:30am 15.6 12.2 10.4 71 2.8 SW 19 28 10 15 1021.7 1021.3 0.0
21/10:00am 15.3 11.5 11.1 76 2.3 WSW 22 28 12 15 1021.5 1021.1 0.0
21/09:30am 14.0 10.4 10.6 80 1.8 WSW 20 26 11 14 1021.4 1021.0 0.0
21/09:00am 13.9 11.0 10.9 82 1.6 W 17 22 9 12 1021.3 1020.9 0.8
21/08:30am 12.6 9.4 10.1 85 1.3 WNW 17 22 9 12 1021.1 1020.7 0.8
21/08:00am 12.6 9.1 10.3 86 1.2 WNW 19 24 10 13 1020.2 1019.8 0.8
21/07:30am 12.2 9.9 10.4 89 0.9 WNW 13 17 7 9 1020.1 1019.7 0.8
21/07:00am 12.1 9.8 10.3 89 0.9 NW 13 19 7 10 1019.8 1019.4 0.8
21/06:30am 12.3 10.0 10.5 89 0.9 NW 13 17 7 9 1019.6 1019.2 0.8
21/06:00am 12.1 10.2 10.5 90 0.8 NW 11 13 6 7 1019.2 1018.8 0.8
21/05:30am 11.9 10.3 10.3 90 0.8 N 9 11 5 6 1018.6 1018.2 0.8
21/05:00am 12.2 10.2 10.3 88 1.0 W 11 15 6 8 1017.7 1017.4 0.8
21/04:30am 12.4 10.1 10.5 88 1.0 NNW 13 19 7 10 1019.2 1018.8 0.8
21/04:00am 12.2 9.9 10.4 89 0.9 WNW 13 19 7 10 1017.9 1017.6 0.8
21/03:30am 12.4 9.5 11.1 92 0.7 WNW 17 24 9 13 1017.6 1017.3 0.6
21/03:00am 12.4 9.6 11.3 93 0.6 W 17 22 9 12 1016.9 1016.5 0.4
21/02:30am 12.6 9.0 11.8 95 0.4 W 22 30 12 16 1017.5 1017.2 0.2
21/02:00am 12.5 8.8 11.6 94 0.5 W 22 33 12 18 1018.4 1018.0 0.2
21/01:30am 12.7 10.0 11.6 93 0.6 W 17 24 9 13 1017.3 1017.0 0.0
21/01:00am 12.9 10.7 12.0 94 0.5 W 15 24 8 13 1017.3 1017.0 0.0
21/12:30am 13.0 10.0 12.1 94 0.5 WSW 19 28 10 15 1017.3 1017.0 0.0
21/12:00am 13.4 9.9 12.1 92 0.7 WSW 22 30 12 16 1017.9 1017.6 0.0
 
Date/Time
CST
Temp
°C
App
Temp
°C
Dew
Point
°C
Rel
Hum
%
Delta-T
°C
Wind Press
QNH
hPa
Press
MSL
hPa
Rain since
9am
mm
Dir  Spd
km/h
Gust
km/h
Spd
kts
Gust
kts
20/11:30pm 13.9 9.8 11.6 86 1.2 WSW 24 32 13 17 1018.1 1017.7 0.0
20/11:00pm 14.4 10.2 11.2 81 1.7 WSW 24 32 13 17 1017.6 1017.3 0.0
20/10:30pm 14.2 9.7 11.4 83 1.5 WSW 26 41 14 22 1017.7 1017.4 0.0
20/10:00pm 13.9 8.0 12.3 90 0.9 WSW 35 46 19 25 1017.8 1017.5 0.0
20/09:30pm 15.2 9.0 12.5 84 1.5 WSW 37 52 20 28 1016.5 1016.1 0.0
20/09:08pm 15.8 10.1 13.1 84 1.5 WSW 35 54 19 29 1015.4 1015.0 0.0
20/09:00pm 17.1 11.1 13.4 79 2.1 WSW 37 50 20 27 1015.4 1015.0 0.0
20/08:58pm 17.5 11.6 13.6 78 2.2 WSW 37 50 20 27 1015.3 1014.9 0.0
20/08:30pm 18.7 15.2 14.4 76 2.5 WSW 26 32 14 17 1014.5 1014.1 0.0
20/08:00pm 19.4 15.0 14.2 72 3.0 WSW 30 37 16 20 1014.1 1013.7 0.0
20/07:30pm 20.3 15.3 13.5 65 3.9 WSW 32 43 17 23 1013.4 1013.0 0.0
20/07:00pm 21.9 16.2 11.3 51 5.9 W 32 50 17 27 1012.5 1012.1 0.0
20/06:59pm 22.0 16.7 11.1 50 6.1 W 30 50 16 27 1012.6 1012.2 0.0
20/06:51pm 23.0 17.1 9.0 41 7.6 NW 30 44 16 24 1012.3 1011.8 0.0
20/06:30pm 28.0 20.5 3.7 21 12.3 N 32 41 17 22 1011.3 1010.9 0.0
20/06:00pm 28.1 20.9 3.0 20 12.6 NNW 30 44 16 24 1011.3 1010.9 0.0

Other formats

Comma delimited format used in spreadsheet applications
http://www.bom.gov.au/fwo/IDS60801/IDS60801.94662.axf

JavaScript Object Notation format (JSON) in row-major order
http://www.bom.gov.au/fwo/IDS60801/IDS60801.94662.json

Data quality

Most of these data are generated automatically and are frequently updated. Quality checks on data are not normally performed. It is possible for incorrect values to appear. Refer to information at About Latest Weather Observations and please check the disclaimer before using these data.